Aérodrome :
LOGIN :

S'inscrire | Disclaimer

   EN    FR    IT 

 










Légende :    VFR   VFR Marginal   IFR   IFR Intensif   IFR Très Intensif
Visi : 
Plafond : 
>= 8 km
>= 3000ft
5 à 8 km
1000 à 3000 ft
1500m à 5 km
500 à 1000 ft
800 à 1500m
200 à 500 ft
< 800m
< 200 ft
Symboles :   Orages  Brouillard  Fortes neiges  Fortes précipitations  Vent > 20 kt
SIGMETs :   Divers  Orages  Givrage  Turbulence  Onde Orograph.  Cendres Volcan.






- Altitude de l'aérodrome : 909 ft
- Code IATA : KSF


EDVK - Kassel Calden

DERNIER METAR :
  • 301350Z 01003KT 7000 -RASN OVC025 M00/M01 Q1000

METARs EXPIRÉS :
  • 301320Z VRB02KT 7000 -SN BKN030 00/M01 Q1000
  • 301250Z 04002KT 9999 -RASN BKN032 00/M01 Q1000
  • 301220Z 06003KT 9999 -RASN FEW016 SCT035 BKN040 00/M02 Q1000
  • 301150Z 13003KT 9999 FEW007 SCT037 00/M02 Q1000
  • 301120Z 12004KT 9999 FEW009 SCT046 00/M02 Q1000
  • 301050Z 09005KT 9999 -RASN FEW009 SCT041 M00/M02 Q1000
  • 301020Z 10004KT 9999 SCT008 BKN041 M00/M02 Q1001
  • 300950Z VRB01KT 8000 BKN008 BKN018 M00/M01 Q1001
  • 300920Z 04003KT 7000 SCT004 OVC008 M01/M02 Q1001

TAF TAF EDVK
Valide du 30 à 12h jusqu'au 30 à 21h UTC


301100Z 3012/3021 VRB03KT 9999 FEW008 SCT040
BECMG 3012/3014 BKN008
TEMPO 3012/3021 4000 -SN OVC004



MET'MAP, la Météo Aéronautique d'un coup d'oeil ! - Copyright ORBIFLY Décembre 2007 - Disclaimer

ORBIFLY MET'MAP TEAM :

Programmation & Développement : Alexandra Zaïnal
Sur une idée originale de : Baudouin d'Aumeries
Soutien technique & logistique : Manuel Goepfert
Assistance : Marc-Olivier Méhu




SOURCES & CREDITS :

   NOAA